SDR weather

Santander Airport
Santander, Cantabria, Spain

Public forecast

Using degrees Celsius for public forecast. Weather courtesy of forecast.io.

Current aviation weather report (METAR) for Santander Airport

Retrieved 2020/05/30 09:00 UTC (13 minutes ago):

LEXJ 300900Z AUTO VRB02KT CAVOK 22/16 Q1013

Aviation forecast (TAF) for Santander Airport

Retrieved 2020/05/30 09:28 UTC (0 seconds ago):

TAF LEXJ 300800Z 3009/3109 VRB03KT CAVOK TX25/3013Z TN15/3105Z BECMG 3009/3013 04010KT BECMG 3018/3021 VRB03KT PROB40 TEMPO 3022/3109 3000 BR